createdAt,value
2017-08-15T00:01:20.240Z,19.80
2017-08-15T00:03:47.707Z,19.70
2017-08-15T00:06:15.274Z,19.70
2017-08-15T00:08:42.832Z,19.70
2017-08-15T00:11:10.393Z,19.60
2017-08-15T00:13:37.949Z,19.50
2017-08-15T00:16:05.462Z,19.50
2017-08-15T00:18:32.979Z,19.50
2017-08-15T00:21:01.271Z,19.50
2017-08-15T00:23:28.818Z,19.50
2017-08-15T00:25:57.078Z,19.50
2017-08-15T00:28:24.529Z,19.40
2017-08-15T00:30:51.997Z,19.50
2017-08-15T00:33:20.279Z,19.40
2017-08-15T00:35:48.519Z,19.40
2017-08-15T00:38:15.989Z,19.40
2017-08-15T00:40:43.453Z,19.40
2017-08-15T00:43:10.927Z,19.40
2017-08-15T00:45:38.489Z,19.20
2017-08-15T00:48:05.954Z,19.30
2017-08-15T00:50:33.426Z,19.30
2017-08-15T00:53:00.957Z,19.20
2017-08-15T00:55:28.471Z,19.30
2017-08-15T00:57:55.920Z,19.30
2017-08-15T01:00:23.388Z,19.30
2017-08-15T01:02:50.884Z,19.30
2017-08-15T01:05:19.144Z,19.30
2017-08-15T01:07:46.614Z,19.20
2017-08-15T01:10:14.180Z,19.20
2017-08-15T01:12:42.555Z,19.20
2017-08-15T01:15:10.824Z,19.20
2017-08-15T01:17:39.107Z,19.20
2017-08-15T01:20:07.339Z,19.20
2017-08-15T01:22:34.842Z,19.10
2017-08-15T01:25:02.369Z,19.20
2017-08-15T01:27:29.938Z,19.10
2017-08-15T01:29:57.423Z,19.10
2017-08-15T01:32:24.967Z,19.10
2017-08-15T01:34:53.217Z,19.10
2017-08-15T01:37:20.703Z,19.00
2017-08-15T01:39:48.205Z,19.10
2017-08-15T01:42:15.748Z,19.00
2017-08-15T01:44:43.221Z,19.00
2017-08-15T01:47:10.713Z,19.00
2017-08-15T01:49:38.265Z,19.00
2017-08-15T01:52:05.851Z,19.00
2017-08-15T01:54:34.132Z,19.00
2017-08-15T01:57:01.690Z,18.90
2017-08-15T01:59:29.174Z,18.90
2017-08-15T02:01:56.626Z,18.90
2017-08-15T02:04:24.112Z,18.90
2017-08-15T02:06:51.571Z,18.90
2017-08-15T02:09:19.055Z,18.90
2017-08-15T02:11:46.504Z,18.80
2017-08-15T02:14:13.990Z,18.80
2017-08-15T02:16:41.439Z,18.80
2017-08-15T02:19:08.910Z,18.80
2017-08-15T02:21:36.383Z,18.80
2017-08-15T02:24:03.842Z,18.70
2017-08-15T02:26:31.352Z,18.70
2017-08-15T02:28:59.617Z,18.70
2017-08-15T02:31:27.105Z,18.60
2017-08-15T02:33:54.633Z,18.60
2017-08-15T02:36:22.114Z,18.60
2017-08-15T02:38:49.643Z,18.70
2017-08-15T02:41:17.122Z,18.60
2017-08-15T02:43:45.360Z,18.60
2017-08-15T02:46:12.839Z,18.50
2017-08-15T02:48:40.310Z,18.60
2017-08-15T02:51:08.547Z,18.60
2017-08-15T02:53:36.052Z,18.50
2017-08-15T02:56:04.300Z,18.60
2017-08-15T02:58:31.768Z,18.50
2017-08-15T03:01:00.059Z,18.50
2017-08-15T03:03:28.323Z,18.60
2017-08-15T03:05:56.612Z,18.60
2017-08-15T03:08:24.870Z,18.60
2017-08-15T03:10:53.145Z,18.50
2017-08-15T03:13:21.410Z,18.50
2017-08-15T03:15:48.909Z,18.40
2017-08-15T03:18:16.365Z,18.40
2017-08-15T03:20:43.825Z,18.40
2017-08-15T03:23:11.351Z,18.40
2017-08-15T03:25:39.628Z,18.40
2017-08-15T03:28:07.118Z,18.30
2017-08-15T03:30:34.573Z,18.40
2017-08-15T03:33:02.108Z,18.40
2017-08-15T03:35:30.362Z,18.30
2017-08-15T03:37:57.848Z,18.30
2017-08-15T03:40:25.408Z,18.30
2017-08-15T03:42:52.874Z,18.30
2017-08-15T03:45:20.394Z,18.30
2017-08-15T03:47:48.667Z,18.20
2017-08-15T03:50:16.229Z,18.10
2017-08-15T03:52:43.785Z,18.20
2017-08-15T03:55:11.357Z,18.20
2017-08-15T03:57:39.593Z,18.20
2017-08-15T04:00:07.156Z,18.10
2017-08-15T04:02:34.656Z,18.20
2017-08-15T04:05:02.920Z,18.10
2017-08-15T04:07:31.205Z,18.10
2017-08-15T04:09:59.464Z,18.10
2017-08-15T04:12:27.053Z,18.00
2017-08-15T04:14:54.529Z,18.10
2017-08-15T04:17:22.012Z,18.10
2017-08-15T04:19:49.603Z,18.10
2017-08-15T04:22:17.888Z,18.10
2017-08-15T04:24:46.175Z,18.10
2017-08-15T04:27:13.711Z,18.10
2017-08-15T04:29:41.325Z,18.20
2017-08-15T04:32:08.855Z,18.20
2017-08-15T04:34:36.331Z,18.20
2017-08-15T04:37:03.809Z,18.20
2017-08-15T04:39:31.286Z,18.10
2017-08-15T04:41:58.755Z,18.10
2017-08-15T04:44:26.304Z,18.10
2017-08-15T04:46:53.790Z,18.10
2017-08-15T04:49:22.053Z,18.20
2017-08-15T04:51:50.308Z,18.30
2017-08-15T04:54:17.780Z,18.20
2017-08-15T04:56:45.263Z,18.20
2017-08-15T04:59:12.798Z,18.20
2017-08-15T05:01:41.040Z,18.30
2017-08-15T05:04:08.506Z,18.20
2017-08-15T05:06:35.960Z,18.20
2017-08-15T05:09:03.432Z,18.20
2017-08-15T05:11:31.008Z,18.20
2017-08-15T05:13:59.295Z,18.40
2017-08-15T05:16:26.749Z,18.30
2017-08-15T05:18:54.219Z,18.40
2017-08-15T05:21:21.686Z,18.40
2017-08-15T05:23:49.223Z,18.40
2017-08-15T05:26:16.770Z,18.30
2017-08-15T05:31:19.642Z,18.40
2017-08-15T05:33:47.130Z,18.40
2017-08-15T05:36:15.368Z,18.60
2017-08-15T05:38:42.857Z,18.60
2017-08-15T05:41:11.124Z,18.70
2017-08-15T05:43:39.404Z,18.80
2017-08-15T05:46:07.678Z,18.90
2017-08-15T05:48:35.956Z,18.90
2017-08-15T05:51:04.224Z,19.00
2017-08-15T05:53:31.785Z,19.00
2017-08-15T05:56:00.041Z,19.20
2017-08-15T05:58:27.626Z,19.10
2017-08-15T06:00:55.903Z,19.20
2017-08-15T06:03:23.387Z,19.20
2017-08-15T06:05:50.914Z,19.30
2017-08-15T06:08:19.133Z,19.30
2017-08-15T06:10:46.641Z,19.30
2017-08-15T06:13:14.112Z,19.50
2017-08-15T06:15:42.362Z,19.50
2017-08-15T06:18:09.861Z,19.50
2017-08-15T06:20:37.334Z,19.60
2017-08-15T06:23:04.844Z,19.70
2017-08-15T06:25:33.102Z,19.90
2017-08-15T06:28:00.661Z,19.80
2017-08-15T06:30:28.244Z,20.00
2017-08-15T06:32:56.482Z,20.00
2017-08-15T06:35:23.944Z,20.00
2017-08-15T06:37:51.424Z,20.10
2017-08-15T06:40:19.699Z,20.30
2017-08-15T06:42:47.953Z,20.20
2017-08-15T06:45:15.439Z,20.20
2017-08-15T06:47:43.668Z,20.20
2017-08-15T06:50:11.136Z,20.20
2017-08-15T06:52:38.607Z,20.40
2017-08-15T06:55:06.183Z,20.40
2017-08-15T06:57:34.502Z,20.50
2017-08-15T07:00:02.010Z,20.50
2017-08-15T07:02:30.290Z,20.60
2017-08-15T07:04:58.563Z,20.70
2017-08-15T07:07:26.830Z,20.90
2017-08-15T07:09:54.298Z,20.90
2017-08-15T07:12:22.582Z,21.10
2017-08-15T07:14:50.858Z,21.20
2017-08-15T07:17:19.121Z,21.30
2017-08-15T07:19:47.374Z,21.50
2017-08-15T07:22:14.831Z,21.40
2017-08-15T07:24:42.313Z,21.50
2017-08-15T07:27:10.690Z,21.70
2017-08-15T07:29:38.253Z,21.60
2017-08-15T07:32:06.512Z,21.70
2017-08-15T07:34:33.976Z,21.70
2017-08-15T07:37:01.494Z,21.90
2017-08-15T07:39:28.988Z,22.00
2017-08-15T07:41:56.438Z,22.10
2017-08-15T07:44:24.020Z,22.30
2017-08-15T07:46:52.298Z,22.30
2017-08-15T07:49:20.576Z,22.40
2017-08-15T07:51:48.833Z,22.20
2017-08-15T07:54:16.394Z,22.10
2017-08-15T07:56:43.904Z,22.10
2017-08-15T07:59:11.428Z,22.10
2017-08-15T08:01:39.688Z,22.30
2017-08-15T08:04:07.161Z,22.30
2017-08-15T08:06:35.376Z,22.60
2017-08-15T08:09:02.927Z,22.60
2017-08-15T08:11:30.395Z,22.70
2017-08-15T08:13:57.848Z,22.90
2017-08-15T08:16:25.437Z,23.00
2017-08-15T08:18:53.006Z,23.00
2017-08-15T08:21:20.569Z,23.10
2017-08-15T08:23:48.830Z,23.40
2017-08-15T08:26:16.384Z,23.40
2017-08-15T08:28:43.962Z,23.40
2017-08-15T08:31:12.244Z,23.60
2017-08-15T08:33:40.467Z,23.70
2017-08-15T08:36:07.944Z,23.70
2017-08-15T08:38:35.470Z,23.70
2017-08-15T08:41:02.990Z,23.80
2017-08-15T08:43:31.216Z,23.70
2017-08-15T08:45:58.683Z,23.70
2017-08-15T08:48:26.142Z,23.80
2017-08-15T08:50:53.641Z,23.80
2017-08-15T08:53:21.886Z,24.00
2017-08-15T08:55:49.475Z,24.00
2017-08-15T08:58:17.689Z,24.20
2017-08-15T09:00:45.178Z,24.10
2017-08-15T09:03:12.646Z,24.20
2017-08-15T09:05:40.197Z,24.30
2017-08-15T09:08:07.671Z,24.50
2017-08-15T09:10:35.888Z,24.90
2017-08-15T09:13:03.360Z,24.80
2017-08-15T09:15:30.834Z,25.20
2017-08-15T09:17:58.404Z,25.60
2017-08-15T09:20:25.906Z,25.80
2017-08-15T09:22:53.431Z,26.00
2017-08-15T09:25:20.888Z,26.00
2017-08-15T09:27:49.129Z,25.80
2017-08-15T09:30:16.599Z,25.70
2017-08-15T09:32:44.089Z,26.00
2017-08-15T09:35:12.337Z,26.40
2017-08-15T09:37:39.815Z,26.40
2017-08-15T09:40:08.074Z,27.00
2017-08-15T09:42:35.559Z,27.00
2017-08-15T09:45:03.027Z,27.30
2017-08-15T09:47:30.514Z,27.30
2017-08-15T09:49:57.967Z,27.40
2017-08-15T09:52:25.447Z,27.70
2017-08-15T09:54:52.930Z,27.80
2017-08-15T09:57:21.214Z,27.40
2017-08-15T09:59:49.456Z,27.00
2017-08-15T10:02:16.948Z,27.00
2017-08-15T10:04:45.202Z,26.80
2017-08-15T10:07:12.762Z,26.70
2017-08-15T10:09:41.005Z,27.40
2017-08-15T10:12:08.487Z,27.40
2017-08-15T10:14:35.987Z,27.80
2017-08-15T10:17:03.459Z,28.00
2017-08-15T10:19:30.962Z,27.70
2017-08-15T10:21:58.435Z,27.60
2017-08-15T10:24:26.675Z,28.10
2017-08-15T10:26:54.154Z,28.10
2017-08-15T10:29:21.657Z,28.30
2017-08-15T10:31:49.143Z,28.20
2017-08-15T10:34:16.629Z,28.10
2017-08-15T10:36:44.192Z,28.20
2017-08-15T10:39:12.444Z,28.00
2017-08-15T10:41:39.981Z,28.00
2017-08-15T10:44:07.466Z,28.10
2017-08-15T10:46:35.037Z,28.10
2017-08-15T10:49:02.590Z,28.50
2017-08-15T10:51:30.147Z,29.00
2017-08-15T10:53:57.706Z,29.50
2017-08-15T10:56:25.195Z,29.70
2017-08-15T10:58:52.680Z,29.40
2017-08-15T11:01:20.150Z,29.20
2017-08-15T11:03:47.611Z,29.00
2017-08-15T11:06:15.191Z,28.90
2017-08-15T11:08:42.660Z,28.80
2017-08-15T11:11:10.950Z,28.50
2017-08-15T11:13:38.416Z,28.50
2017-08-15T11:16:05.897Z,28.50
2017-08-15T11:18:33.457Z,28.60
2017-08-15T11:21:01.007Z,28.80
2017-08-15T11:23:28.531Z,28.90
2017-08-15T11:25:56.804Z,29.20
2017-08-15T11:28:25.042Z,29.30
2017-08-15T11:30:52.533Z,29.30
2017-08-15T11:33:20.757Z,29.70
2017-08-15T11:35:48.276Z,29.60
2017-08-15T11:38:16.505Z,29.80
2017-08-15T11:40:43.994Z,29.80
2017-08-15T11:43:11.464Z,29.90
2017-08-15T11:45:39.713Z,30.40
2017-08-15T11:48:07.278Z,30.40
2017-08-15T11:50:34.845Z,30.70
2017-08-15T11:53:03.104Z,31.10
2017-08-15T11:55:30.617Z,31.10
2017-08-15T11:57:58.126Z,31.10
2017-08-15T12:00:25.708Z,31.10
2017-08-15T12:02:53.969Z,30.70
2017-08-15T12:05:22.211Z,30.50
2017-08-15T12:07:49.669Z,30.40
2017-08-15T12:10:17.125Z,30.50
2017-08-15T12:12:44.707Z,30.80
2017-08-15T12:15:12.164Z,31.00
2017-08-15T12:17:39.632Z,31.30
2017-08-15T12:20:07.869Z,31.60
2017-08-15T12:22:35.355Z,31.60
2017-08-15T12:25:03.586Z,31.90
2017-08-15T12:27:31.067Z,31.90
2017-08-15T12:29:58.580Z,32.00
2017-08-15T12:32:26.065Z,31.90
2017-08-15T12:34:53.607Z,31.80
2017-08-15T12:37:21.066Z,31.90
2017-08-15T12:39:48.569Z,32.10
2017-08-15T12:42:16.026Z,32.20
2017-08-15T12:44:43.510Z,32.20
2017-08-15T12:47:11.194Z,32.10
2017-08-15T12:49:38.693Z,32.20
2017-08-15T12:52:06.272Z,32.20
2017-08-15T12:54:34.549Z,31.90
2017-08-15T12:57:02.792Z,32.00
2017-08-15T12:59:30.298Z,31.90
2017-08-15T13:01:57.825Z,32.10
2017-08-15T13:04:25.292Z,32.10
2017-08-15T13:06:53.611Z,32.20
2017-08-15T13:09:21.110Z,32.20
2017-08-15T13:11:48.687Z,32.30
2017-08-15T13:14:16.962Z,32.50
2017-08-15T13:16:45.199Z,32.60
2017-08-15T13:19:12.672Z,32.50
2017-08-15T13:21:40.160Z,32.40
2017-08-15T13:24:08.398Z,32.30
2017-08-15T13:26:35.861Z,32.20
2017-08-15T13:29:03.342Z,32.20
2017-08-15T13:31:31.578Z,32.20
2017-08-15T13:33:59.067Z,32.20
2017-08-15T13:36:26.545Z,32.40
2017-08-15T13:38:54.042Z,32.50
2017-08-15T13:41:21.509Z,32.50
2017-08-15T13:43:48.978Z,32.60
2017-08-15T13:46:16.453Z,32.60
2017-08-15T13:48:43.932Z,32.50
2017-08-15T13:51:11.529Z,32.40
2017-08-15T13:53:39.010Z,32.40
2017-08-15T13:56:06.488Z,32.40
2017-08-15T13:58:34.745Z,32.10
2017-08-15T14:01:02.224Z,32.00
2017-08-15T14:03:30.476Z,32.40
2017-08-15T14:05:57.951Z,32.30
2017-08-15T14:08:26.208Z,32.80
2017-08-15T14:10:53.700Z,32.70
2017-08-15T14:13:21.179Z,32.70
2017-08-15T14:15:48.640Z,32.80
2017-08-15T14:18:16.108Z,33.00
2017-08-15T14:20:43.604Z,33.00
2017-08-15T14:23:11.066Z,33.00
2017-08-15T14:25:38.549Z,33.00
2017-08-15T14:28:06.122Z,33.00
2017-08-15T14:30:33.603Z,33.10
2017-08-15T14:33:01.058Z,33.00
2017-08-15T14:35:28.532Z,32.90
2017-08-15T14:37:56.016Z,32.90
2017-08-15T14:40:23.472Z,32.90
2017-08-15T14:42:50.996Z,32.90
2017-08-15T14:45:18.459Z,32.80
2017-08-15T14:47:45.946Z,32.60
2017-08-15T14:50:13.438Z,32.40
2017-08-15T14:52:40.908Z,32.20
2017-08-15T14:55:08.380Z,32.20
2017-08-15T14:57:35.871Z,32.00
2017-08-15T15:00:04.093Z,31.70
2017-08-15T15:02:31.556Z,31.60
2017-08-15T15:04:59.008Z,31.40
2017-08-15T15:07:26.472Z,31.30
2017-08-15T15:09:53.955Z,31.00
2017-08-15T15:12:21.410Z,30.90
2017-08-15T15:14:49.643Z,31.00
2017-08-15T15:17:17.099Z,30.90
2017-08-15T15:19:44.594Z,30.90
2017-08-15T15:22:12.054Z,30.90
2017-08-15T15:24:39.539Z,31.00
2017-08-15T15:27:07.047Z,31.10
2017-08-15T15:29:34.525Z,31.20
2017-08-15T15:32:02.033Z,31.20
2017-08-15T15:34:29.517Z,31.20
2017-08-15T15:36:56.982Z,31.30
2017-08-15T15:39:24.566Z,31.30
2017-08-15T15:41:52.803Z,31.30
2017-08-15T15:44:20.281Z,31.20
2017-08-15T15:46:47.746Z,31.40
2017-08-15T15:49:15.232Z,31.50
2017-08-15T15:51:42.702Z,31.80
2017-08-15T15:54:10.330Z,31.90
2017-08-15T15:56:38.585Z,32.10
2017-08-15T15:59:06.045Z,32.10
2017-08-15T16:01:33.522Z,32.00
2017-08-15T16:04:01.765Z,31.50
2017-08-15T16:06:29.242Z,31.40
2017-08-15T16:08:56.798Z,31.20
2017-08-15T16:11:24.309Z,31.30
2017-08-15T16:13:53.546Z,31.60
2017-08-15T16:16:22.534Z,31.90
2017-08-15T16:18:49.996Z,32.10
2017-08-15T16:21:17.559Z,32.20
2017-08-15T16:23:45.032Z,32.10
2017-08-15T16:26:13.281Z,32.10
2017-08-15T16:28:40.742Z,32.00
2017-08-15T16:31:08.264Z,31.90
2017-08-15T16:33:35.818Z,31.80
2017-08-15T16:36:03.375Z,31.80
2017-08-15T16:38:30.934Z,31.70
2017-08-15T16:40:58.428Z,31.50
2017-08-15T16:43:25.921Z,31.40
2017-08-15T16:45:54.157Z,31.10
2017-08-15T16:48:21.632Z,31.00
2017-08-15T16:50:49.131Z,31.10
2017-08-15T16:53:16.621Z,30.90
2017-08-15T16:55:44.152Z,30.80
2017-08-15T16:58:11.618Z,30.70
2017-08-15T17:00:39.088Z,30.60
2017-08-15T17:03:06.552Z,30.60
2017-08-15T17:05:34.033Z,30.50
2017-08-15T17:08:01.581Z,30.60
2017-08-15T17:10:29.048Z,30.60
2017-08-15T17:12:56.555Z,30.60
2017-08-15T17:15:24.040Z,30.40
2017-08-15T17:17:51.622Z,30.20
2017-08-15T17:20:19.943Z,29.80
2017-08-15T17:22:47.418Z,29.80
2017-08-15T17:25:14.904Z,29.70
2017-08-15T17:27:42.449Z,29.60
2017-08-15T17:30:09.920Z,29.40
2017-08-15T17:32:37.500Z,29.30
2017-08-15T17:35:05.733Z,29.00
2017-08-15T17:37:33.198Z,29.00
2017-08-15T17:40:00.671Z,28.90
2017-08-15T17:42:28.154Z,28.80
2017-08-15T17:44:55.634Z,28.70
2017-08-15T17:47:23.128Z,28.60
2017-08-15T17:49:50.580Z,28.50
2017-08-15T17:52:18.078Z,28.40
2017-08-15T17:54:46.297Z,28.30
2017-08-15T17:57:13.813Z,28.20
2017-08-15T17:59:41.292Z,28.30
2017-08-15T18:02:08.763Z,28.10
2017-08-15T18:04:36.245Z,28.10
2017-08-15T18:07:04.524Z,28.00
2017-08-15T18:09:31.991Z,27.90
2017-08-15T18:11:59.477Z,27.90
2017-08-15T18:14:26.936Z,27.80
2017-08-15T18:16:54.456Z,27.80
2017-08-15T18:19:22.021Z,27.70
2017-08-15T18:21:49.509Z,27.60
2017-08-15T18:24:17.019Z,27.50
2017-08-15T18:26:44.490Z,27.50
2017-08-15T18:29:11.983Z,27.40
2017-08-15T18:31:39.469Z,27.30
2017-08-15T18:34:06.948Z,27.30
2017-08-15T18:36:34.424Z,27.20
2017-08-15T18:39:01.982Z,27.20
2017-08-15T18:41:29.477Z,27.10
2017-08-15T18:43:57.009Z,27.10
2017-08-15T18:46:25.249Z,26.90
2017-08-15T18:48:52.714Z,26.90
2017-08-15T18:51:20.286Z,26.80
2017-08-15T18:53:47.849Z,26.80
2017-08-15T18:56:15.399Z,26.80
2017-08-15T18:58:42.896Z,26.70
2017-08-15T19:01:10.412Z,26.70
2017-08-15T19:03:37.960Z,26.60
2017-08-15T19:06:05.430Z,26.50
2017-08-15T19:08:33.043Z,26.50
2017-08-15T19:11:00.511Z,26.40
2017-08-15T19:13:28.161Z,26.40
2017-08-15T19:15:55.704Z,26.40
2017-08-15T19:18:23.311Z,26.30
2017-08-15T19:20:50.789Z,26.30
2017-08-15T19:23:19.058Z,26.10
2017-08-15T19:25:46.622Z,26.00
2017-08-15T19:28:14.176Z,26.00
2017-08-15T19:30:41.833Z,26.00
2017-08-15T19:33:09.311Z,25.90
2017-08-15T19:35:37.562Z,25.80
2017-08-15T19:38:05.033Z,25.80
2017-08-15T19:40:33.263Z,25.70
2017-08-15T19:43:00.793Z,25.60
2017-08-15T19:45:28.262Z,25.60
2017-08-15T19:47:55.776Z,25.60
2017-08-15T19:50:24.016Z,25.60
2017-08-15T19:52:51.520Z,25.50
2017-08-15T19:55:19.792Z,25.50
2017-08-15T19:57:48.054Z,25.50
2017-08-15T20:00:15.520Z,25.40
2017-08-15T20:02:43.844Z,25.40
2017-08-15T20:05:11.305Z,25.30
2017-08-15T20:07:38.820Z,25.30
2017-08-15T20:10:07.082Z,25.20
2017-08-15T20:12:34.550Z,25.20
2017-08-15T20:15:02.827Z,25.20
2017-08-15T20:17:31.092Z,25.20
2017-08-15T20:19:58.541Z,25.10
2017-08-15T20:22:26.054Z,25.10
2017-08-15T20:24:53.522Z,25.10
2017-08-15T20:27:21.065Z,25.10
2017-08-15T20:29:48.543Z,25.00
2017-08-15T20:32:16.030Z,25.00
2017-08-15T20:34:43.522Z,25.00
2017-08-15T20:37:11.041Z,25.00
2017-08-15T20:39:39.322Z,25.00
2017-08-15T20:42:06.888Z,24.90
2017-08-15T20:44:35.138Z,24.90
2017-08-15T20:47:02.723Z,24.80
2017-08-15T20:49:30.948Z,24.80
2017-08-15T20:51:58.499Z,24.80
2017-08-15T20:54:26.046Z,24.80
2017-08-15T20:56:53.542Z,24.80
2017-08-15T20:59:21.028Z,24.80
2017-08-15T21:01:49.309Z,24.80
2017-08-15T21:04:17.578Z,24.90
2017-08-15T21:06:45.845Z,24.80
2017-08-15T21:09:13.407Z,24.80
2017-08-15T21:11:40.861Z,24.80
2017-08-15T21:14:08.320Z,24.80
2017-08-15T21:16:35.772Z,24.70
2017-08-15T21:19:03.255Z,24.70
2017-08-15T21:21:31.510Z,24.70
2017-08-15T21:23:59.770Z,24.70
2017-08-15T21:26:27.333Z,24.70
2017-08-15T21:28:54.830Z,24.70
2017-08-15T21:31:22.364Z,24.70
2017-08-15T21:33:50.627Z,24.70
2017-08-15T21:36:18.138Z,24.70
2017-08-15T21:38:45.596Z,24.70
2017-08-15T21:41:13.073Z,24.70
2017-08-15T21:43:40.561Z,24.60
2017-08-15T21:46:08.054Z,24.60
2017-08-15T21:48:35.540Z,24.60
2017-08-15T21:51:03.021Z,24.60
2017-08-15T21:53:30.491Z,24.50
2017-08-15T21:55:57.970Z,24.50
2017-08-15T21:58:25.442Z,24.50
2017-08-15T22:01:09.691Z,24.50
2017-08-15T22:03:37.203Z,24.50
2017-08-15T22:06:04.691Z,24.50
2017-08-15T22:08:32.224Z,24.50
2017-08-15T22:11:00.494Z,24.40
2017-08-15T22:13:28.765Z,24.40
2017-08-15T22:15:56.334Z,24.30
2017-08-15T22:18:24.587Z,24.40
2017-08-15T22:20:52.065Z,24.40
2017-08-15T22:23:19.536Z,24.40
2017-08-15T22:25:47.778Z,24.40
2017-08-15T22:28:15.255Z,24.30
2017-08-15T22:30:43.556Z,24.40
2017-08-15T22:33:11.081Z,24.30
2017-08-15T22:35:38.566Z,24.40
2017-08-15T22:38:06.806Z,24.30
2017-08-15T22:40:34.286Z,24.20
2017-08-15T22:43:02.640Z,24.20
2017-08-15T22:45:30.209Z,24.20
2017-08-15T22:47:57.761Z,24.10
2017-08-15T22:50:25.224Z,24.10
2017-08-15T22:52:52.794Z,24.10
2017-08-15T22:55:21.039Z,24.00
2017-08-15T22:57:48.513Z,23.90
2017-08-15T23:00:15.982Z,23.90
2017-08-15T23:02:44.209Z,23.80
2017-08-15T23:05:11.692Z,23.70
2017-08-15T23:07:39.162Z,23.80
2017-08-15T23:10:06.693Z,23.70
2017-08-15T23:12:34.160Z,23.80
2017-08-15T23:15:01.611Z,23.80
2017-08-15T23:17:29.094Z,23.80
2017-08-15T23:19:57.471Z,23.80
2017-08-15T23:22:25.748Z,23.80
2017-08-15T23:24:53.305Z,23.80
2017-08-15T23:27:20.937Z,23.90
2017-08-15T23:29:48.469Z,23.80
2017-08-15T23:32:15.975Z,23.80
2017-08-15T23:34:43.527Z,23.80
2017-08-15T23:37:10.993Z,23.80
2017-08-15T23:39:38.470Z,23.80
2017-08-15T23:42:06.726Z,23.80
2017-08-15T23:44:34.274Z,23.80
2017-08-15T23:47:01.845Z,23.80
2017-08-15T23:49:29.397Z,23.80
2017-08-15T23:51:56.956Z,23.80
2017-08-15T23:54:24.543Z,23.70
2017-08-15T23:56:52.799Z,23.60
2017-08-15T23:59:21.068Z,23.60
